createdAt,value
2022-09-07T04:28:21.674Z,5.62
2022-09-07T04:29:18.139Z,5.62
2022-09-07T04:30:19.631Z,5.62
2022-09-07T04:31:20.661Z,5.62
2022-09-07T04:32:22.878Z,5.62
2022-09-07T04:33:24.995Z,5.62
2022-09-07T04:34:27.111Z,5.62
2022-09-07T04:35:29.331Z,5.62
2022-09-07T04:36:31.497Z,5.62
2022-09-07T04:37:33.679Z,11.25
2022-09-07T04:38:35.308Z,11.25
2022-09-07T04:39:37.487Z,11.25
2022-09-07T04:40:39.690Z,11.25
2022-09-07T04:41:41.815Z,16.87
2022-09-07T04:42:43.937Z,16.87
2022-09-07T04:43:46.055Z,16.87
2022-09-07T04:44:48.177Z,22.50
2022-09-07T04:45:49.392Z,22.50
2022-09-07T04:46:51.737Z,28.12
2022-09-07T04:48:54.499Z,28.12
2022-09-07T04:49:55.789Z,33.75
2022-09-07T04:50:57.883Z,33.75
2022-09-07T04:52:00.008Z,39.37
2022-09-07T04:53:01.174Z,39.37
2022-09-07T04:54:03.299Z,39.37
2022-09-07T04:55:05.422Z,39.37
2022-09-07T04:56:07.552Z,45.00
2022-09-07T04:57:11.745Z,45.00
2022-09-07T04:58:11.547Z,50.62
2022-09-07T04:59:18.559Z,50.62
2022-09-07T05:00:14.101Z,50.62
2022-09-07T05:01:16.254Z,50.62
2022-09-07T05:02:17.314Z,56.25
2022-09-07T05:03:25.862Z,61.87
2022-09-07T05:04:21.041Z,61.87
2022-09-07T05:05:22.303Z,67.50
2022-09-07T05:06:24.432Z,67.50
2022-09-07T05:07:26.555Z,73.12
2022-09-07T05:08:28.769Z,73.12
2022-09-07T05:09:29.833Z,73.12
2022-09-07T05:10:30.785Z,73.12
2022-09-07T05:11:33.163Z,73.12
2022-09-07T05:12:34.378Z,73.12
2022-09-07T05:13:36.535Z,73.12
2022-09-07T05:14:38.616Z,73.12
2022-09-07T05:15:39.789Z,73.12
2022-09-07T05:16:42.121Z,78.75
2022-09-07T05:17:43.115Z,78.75
2022-09-07T05:18:45.433Z,78.75
2022-09-07T05:19:46.455Z,84.37
2022-09-07T05:20:48.579Z,84.37
2022-09-07T05:21:49.739Z,84.37
2022-09-07T05:22:52.070Z,90.00
2022-09-07T05:24:00.292Z,90.00
2022-09-07T05:24:55.416Z,95.62
2022-09-07T05:25:57.143Z,101.25
2022-09-07T05:26:59.003Z,106.87
2022-09-07T05:28:03.341Z,106.87
2022-09-07T05:30:04.987Z,118.12
2022-09-07T05:31:23.505Z,135.00
2022-09-07T05:32:08.296Z,129.37
2022-09-07T05:33:09.453Z,140.62
2022-09-07T05:35:13.270Z,135.00
2022-09-07T05:36:14.312Z,135.00
2022-09-07T05:37:15.406Z,140.62
2022-09-07T05:38:17.552Z,140.62
2022-09-07T05:39:19.784Z,146.25
2022-09-07T05:40:21.889Z,151.87
2022-09-07T05:41:23.984Z,151.87
2022-09-07T05:42:25.163Z,146.25
2022-09-07T05:43:27.481Z,146.25
2022-09-07T05:44:45.504Z,146.25
2022-09-07T05:45:32.102Z,146.25
2022-09-07T05:46:32.141Z,151.87
2022-09-07T05:47:40.365Z,157.50
2022-09-07T05:48:35.453Z,163.12
2022-09-07T05:49:37.611Z,168.75
2022-09-07T05:50:38.917Z,168.75
2022-09-07T05:51:45.951Z,180.00
2022-09-07T05:52:41.508Z,191.25
2022-09-07T05:53:43.628Z,196.87
2022-09-07T05:54:54.353Z,202.50
2022-09-07T05:55:47.972Z,208.12
2022-09-07T05:56:50.125Z,213.75
2022-09-07T05:57:51.833Z,213.75
2022-09-07T05:58:53.960Z,225.00
2022-09-07T05:59:56.089Z,225.00
2022-09-07T06:00:58.213Z,230.62
2022-09-07T06:02:00.510Z,236.25
2022-09-07T06:03:01.650Z,247.50
2022-09-07T06:04:03.101Z,253.12
2022-09-07T06:05:04.475Z,275.62
2022-09-07T06:06:05.855Z,298.12
2022-09-07T06:07:22.806Z,326.25
2022-09-07T06:08:10.171Z,354.37
2022-09-07T06:09:11.407Z,388.12
2022-09-07T06:11:14.272Z,376.87
2022-09-07T06:12:15.464Z,371.25
2022-09-07T06:13:16.699Z,376.87
2022-09-07T06:14:18.823Z,393.75
2022-09-07T06:15:19.777Z,410.62
2022-09-07T06:16:20.825Z,427.50
2022-09-07T06:17:22.049Z,455.62
2022-09-07T06:18:23.246Z,421.87
2022-09-07T06:19:25.590Z,427.50
2022-09-07T06:20:26.658Z,416.25
2022-09-07T06:21:27.948Z,382.50
2022-09-07T06:22:31.236Z,405.00
2022-09-07T06:23:31.377Z,388.12
2022-09-07T06:24:32.376Z,315.00
2022-09-07T06:25:34.496Z,309.37
2022-09-07T06:26:36.706Z,382.50
2022-09-07T06:27:38.849Z,405.00
2022-09-07T06:28:40.138Z,523.12
2022-09-07T06:29:42.275Z,523.12
2022-09-07T06:30:43.940Z,506.25
2022-09-07T06:32:47.384Z,483.75
2022-09-07T06:33:48.580Z,483.75
2022-09-07T06:34:50.940Z,461.25
2022-09-07T06:35:52.103Z,461.25
2022-09-07T06:36:53.280Z,444.37
2022-09-07T06:37:55.048Z,461.25
2022-09-07T06:38:56.232Z,495.00
2022-09-07T06:39:58.618Z,410.62
2022-09-07T06:42:01.912Z,534.37
2022-09-07T06:43:02.892Z,517.50
2022-09-07T06:44:03.846Z,528.75
2022-09-07T06:45:05.991Z,523.12
2022-09-07T06:47:09.566Z,478.12
2022-09-07T06:48:10.642Z,506.25
2022-09-07T06:49:11.815Z,506.25
2022-09-07T06:50:20.219Z,427.50
2022-09-07T06:51:15.346Z,444.37
2022-09-07T06:52:17.670Z,613.12
2022-09-07T06:53:34.218Z,568.12
2022-09-07T06:55:21.699Z,888.75
2022-09-07T06:56:22.967Z,894.37
2022-09-07T06:57:24.273Z,804.37
2022-09-07T06:58:25.265Z,720.00
2022-09-07T06:59:33.518Z,753.75
2022-09-07T07:00:28.931Z,978.75
2022-09-07T07:01:31.378Z,984.37
2022-09-07T07:02:32.410Z,928.12
2022-09-07T07:03:34.174Z,838.12
2022-09-07T07:04:40.521Z,888.75
2022-09-07T07:05:38.448Z,1068.75
2022-09-07T07:06:39.621Z,601.87
2022-09-07T07:07:41.801Z,568.12
2022-09-07T07:08:42.982Z,450.00
2022-09-07T07:09:45.103Z,438.75
2022-09-07T07:10:47.238Z,421.87
2022-09-07T07:11:49.371Z,421.87
2022-09-07T07:12:50.564Z,421.87
2022-09-07T07:13:57.677Z,489.37
2022-09-07T07:14:53.040Z,489.37
2022-09-07T07:15:54.785Z,517.50
2022-09-07T07:16:55.801Z,1226.25
2022-09-07T07:18:00.617Z,1271.25
2022-09-07T07:19:00.313Z,1254.37
2022-09-07T07:20:01.279Z,1282.50
2022-09-07T07:21:03.642Z,697.50
2022-09-07T07:22:18.625Z,500.62
2022-09-07T07:23:06.928Z,461.25
2022-09-07T07:24:08.385Z,450.00
2022-09-07T07:25:09.440Z,444.37
2022-09-07T07:26:17.619Z,450.00
2022-09-07T07:27:13.043Z,466.87
2022-09-07T07:29:18.569Z,613.12
2022-09-07T07:30:16.551Z,1006.87
2022-09-07T07:31:18.850Z,1130.62
2022-09-07T07:32:20.039Z,781.87
2022-09-07T07:33:22.166Z,736.87
2022-09-07T07:34:23.465Z,1254.37
2022-09-07T07:35:25.666Z,1406.25
2022-09-07T07:36:27.807Z,1350.00
2022-09-07T07:37:36.022Z,1355.62
2022-09-07T07:39:07.176Z,1338.75
2022-09-07T07:40:36.244Z,641.25
2022-09-07T07:42:06.367Z,624.37
2022-09-07T07:42:38.605Z,973.12
2022-09-07T07:43:39.564Z,1288.12
2022-09-07T07:44:41.705Z,1395.00
2022-09-07T07:46:01.214Z,1507.50
2022-09-07T07:46:46.168Z,1485.00
2022-09-07T07:47:46.078Z,1198.12
2022-09-07T07:48:47.127Z,1698.75
2022-09-07T07:49:49.641Z,860.62
2022-09-07T07:50:50.801Z,832.50
2022-09-07T07:53:55.820Z,843.75
2022-09-07T07:54:56.967Z,663.75
2022-09-07T07:55:59.134Z,624.37
2022-09-07T07:57:00.346Z,596.25
2022-09-07T07:58:02.477Z,573.75
2022-09-07T07:59:04.740Z,556.87
2022-09-07T08:00:06.902Z,523.12
2022-09-07T08:01:09.080Z,506.25
2022-09-07T08:02:11.326Z,500.62
2022-09-07T08:03:12.341Z,500.62
2022-09-07T08:04:13.562Z,523.12
2022-09-07T08:05:15.714Z,551.25
2022-09-07T08:06:17.845Z,551.25
2022-09-07T08:07:20.008Z,540.00
2022-09-07T08:08:22.157Z,517.50
2022-09-07T08:09:29.408Z,478.12
2022-09-07T08:10:26.011Z,438.75
2022-09-07T08:11:29.047Z,416.25
2022-09-07T08:12:29.862Z,393.75
2022-09-07T08:13:30.927Z,376.87
2022-09-07T08:14:32.196Z,360.00
2022-09-07T08:15:33.683Z,354.37
2022-09-07T08:16:34.846Z,348.75
2022-09-07T08:17:35.866Z,348.75
2022-09-07T08:18:36.833Z,343.12
2022-09-07T08:19:38.497Z,331.87
2022-09-07T08:20:40.671Z,320.62
2022-09-07T08:21:43.014Z,309.37
2022-09-07T08:22:45.142Z,292.50
2022-09-07T08:23:47.425Z,281.25
2022-09-07T08:24:49.589Z,270.00
2022-09-07T08:25:51.923Z,258.75
2022-09-07T08:26:52.901Z,258.75
2022-09-07T08:27:55.023Z,253.12
2022-09-07T08:28:57.165Z,253.12
2022-09-07T08:29:58.248Z,253.12
2022-09-07T08:30:59.628Z,253.12
2022-09-07T08:32:00.877Z,253.12
2022-09-07T08:33:02.799Z,247.50
2022-09-07T08:34:03.893Z,241.87
2022-09-07T08:35:05.072Z,241.87
2022-09-07T08:36:06.039Z,247.50
2022-09-07T08:37:08.208Z,258.75
2022-09-07T08:38:09.187Z,270.00
2022-09-07T08:39:11.312Z,281.25
2022-09-07T08:40:13.441Z,292.50
2022-09-07T08:41:15.591Z,298.12
2022-09-07T08:42:16.609Z,315.00
2022-09-07T08:43:18.744Z,326.25
2022-09-07T08:44:21.015Z,331.87
2022-09-07T08:45:23.137Z,337.50
2022-09-07T08:46:25.320Z,337.50
2022-09-07T08:47:26.663Z,331.87
2022-09-07T08:48:27.878Z,320.62
2022-09-07T08:49:30.081Z,309.37
2022-09-07T08:50:38.225Z,303.75
2022-09-07T08:51:34.974Z,303.75
2022-09-07T08:52:36.302Z,309.37
2022-09-07T08:53:37.329Z,315.00
2022-09-07T08:54:39.491Z,320.62
2022-09-07T08:55:41.624Z,320.62
2022-09-07T08:57:20.678Z,326.25
2022-09-07T08:57:46.024Z,326.25
2022-09-07T08:58:49.206Z,326.25
2022-09-07T08:59:48.349Z,320.62
2022-09-07T09:00:50.606Z,208.12
2022-09-07T09:02:28.386Z,196.87
2022-09-07T09:05:57.137Z,241.87
2022-09-07T09:06:58.410Z,270.00
2022-09-07T09:07:59.411Z,298.12
2022-09-07T09:09:01.539Z,320.62
2022-09-07T09:10:03.659Z,354.37
2022-09-07T09:11:05.779Z,382.50
2022-09-07T09:12:14.061Z,405.00
2022-09-07T09:13:09.438Z,433.12
2022-09-07T09:14:10.357Z,461.25
2022-09-07T09:15:12.490Z,585.00
2022-09-07T09:16:14.695Z,618.75
2022-09-07T09:17:16.875Z,1040.62
2022-09-07T09:18:18.065Z,596.25
2022-09-07T09:19:20.401Z,708.75
2022-09-07T09:20:21.367Z,596.25
2022-09-07T09:21:23.687Z,466.87
2022-09-07T09:22:25.836Z,438.75
2022-09-07T09:23:27.953Z,421.87
2022-09-07T09:24:30.073Z,399.37
2022-09-07T09:25:31.153Z,393.75
2022-09-07T09:26:32.172Z,405.00
2022-09-07T09:27:33.444Z,427.50
2022-09-07T09:28:36.430Z,450.00
2022-09-07T09:29:37.620Z,455.62
2022-09-07T09:30:38.845Z,472.50
2022-09-07T09:31:41.064Z,506.25
2022-09-07T09:32:42.137Z,540.00
2022-09-07T09:33:44.258Z,596.25
2022-09-07T09:34:51.698Z,838.12
2022-09-07T09:35:46.811Z,787.50
2022-09-07T09:36:48.909Z,1321.87
2022-09-07T09:37:51.056Z,511.87
2022-09-07T09:38:52.155Z,433.12
2022-09-07T09:39:55.515Z,450.00
2022-09-07T09:40:55.478Z,478.12
2022-09-07T09:41:57.624Z,517.50
2022-09-07T09:42:58.858Z,607.50
2022-09-07T09:44:00.995Z,585.00
2022-09-07T09:45:09.227Z,765.00
2022-09-07T09:46:13.610Z,793.12
2022-09-07T09:48:06.777Z,2081.25
2022-09-07T09:49:08.005Z,1541.25
2022-09-07T09:50:10.395Z,2148.75
2022-09-07T09:52:30.204Z,973.12
2022-09-07T09:53:15.116Z,2261.25
2022-09-07T09:54:14.908Z,1749.37
2022-09-07T09:55:33.946Z,2531.25
2022-09-07T09:56:18.248Z,1518.75
2022-09-07T09:57:19.301Z,1434.37
2022-09-07T10:00:29.292Z,1096.87
2022-09-07T10:01:28.063Z,2379.37
2022-09-07T10:04:28.420Z,1490.62
2022-09-07T10:05:30.741Z,1485.00
2022-09-07T10:06:31.817Z,2345.62
2022-09-07T10:07:33.911Z,2401.87
2022-09-07T10:08:36.073Z,2092.50
2022-09-07T10:09:38.320Z,765.00
2022-09-07T10:10:39.623Z,804.37
2022-09-07T10:12:10.254Z,905.62
2022-09-07T10:12:44.059Z,2356.87
2022-09-07T10:13:45.059Z,2323.12
2022-09-07T10:14:53.304Z,1918.12
2022-09-07T10:15:48.441Z,2396.25
2022-09-07T10:16:50.581Z,2503.12
2022-09-07T10:17:52.722Z,1198.12
2022-09-07T10:18:53.822Z,2013.75
2022-09-07T10:19:55.973Z,781.87
2022-09-07T10:20:58.133Z,978.75
2022-09-07T10:22:00.263Z,928.12
2022-09-07T10:23:01.292Z,961.87
2022-09-07T10:24:03.467Z,973.12
2022-09-07T10:25:05.600Z,956.25
2022-09-07T10:26:07.744Z,1164.37
2022-09-07T10:27:09.943Z,1231.87
2022-09-07T10:28:11.103Z,1338.75
2022-09-07T10:29:12.339Z,1321.87
2022-09-07T10:30:13.680Z,1164.37
2022-09-07T10:31:15.570Z,1265.62
2022-09-07T10:32:16.850Z,1203.75
2022-09-07T10:33:19.028Z,1316.25
2022-09-07T10:34:27.235Z,1361.25
2022-09-07T10:35:22.940Z,1485.00
2022-09-07T10:36:22.756Z,1445.62
2022-09-07T10:37:24.894Z,1276.87
2022-09-07T10:38:28.301Z,1158.75
2022-09-07T10:39:28.251Z,1046.25
2022-09-07T10:40:30.421Z,1170.00
2022-09-07T10:41:32.548Z,1344.37
2022-09-07T10:42:34.706Z,2025.00
2022-09-07T10:43:36.828Z,2131.87
2022-09-07T10:44:37.902Z,2148.75
2022-09-07T10:45:40.025Z,1490.62
2022-09-07T10:46:57.988Z,1985.62
2022-09-07T10:47:44.404Z,1845.00
2022-09-07T10:48:45.365Z,2188.12
2022-09-07T10:50:48.728Z,1614.37
2022-09-07T10:51:49.933Z,1642.50
2022-09-07T10:52:52.075Z,1237.50
2022-09-07T10:54:55.630Z,1046.25
2022-09-07T10:55:57.128Z,1108.12
2022-09-07T10:56:58.103Z,1158.75
2022-09-07T10:58:00.238Z,1541.25
2022-09-07T10:59:01.815Z,1940.62
2022-09-07T11:00:10.923Z,1726.87
2022-09-07T11:01:05.761Z,1440.00
2022-09-07T11:02:06.757Z,1226.25
2022-09-07T11:04:10.284Z,1327.50
2022-09-07T11:05:12.573Z,1310.62
2022-09-07T11:06:14.755Z,1209.37
2022-09-07T11:07:16.856Z,1136.25
2022-09-07T11:08:19.060Z,950.62
2022-09-07T11:09:20.255Z,894.37
2022-09-07T11:10:21.503Z,905.62
2022-09-07T11:12:00.799Z,950.62
2022-09-07T11:13:25.526Z,1136.25
2022-09-07T11:14:27.699Z,1057.50
2022-09-07T11:15:34.909Z,905.62
2022-09-07T11:16:58.118Z,815.62
2022-09-07T11:17:33.428Z,781.87
2022-09-07T11:18:33.612Z,821.25
2022-09-07T11:19:37.275Z,928.12
2022-09-07T11:20:37.555Z,984.37
2022-09-07T11:22:40.920Z,1530.00
2022-09-07T11:23:43.044Z,1991.25
2022-09-07T11:24:44.335Z,2002.50
2022-09-07T11:25:46.821Z,1316.25
2022-09-07T11:26:47.858Z,1141.87
2022-09-07T11:27:48.814Z,2025.00
2022-09-07T11:29:29.217Z,2716.87
2022-09-07T11:29:52.175Z,2694.37
2022-09-07T11:30:59.224Z,2587.50
2022-09-07T11:31:55.769Z,2475.00
2022-09-07T11:32:57.971Z,1996.87
2022-09-07T11:34:28.874Z,1046.25
2022-09-07T11:35:01.208Z,961.87
2022-09-07T11:36:02.238Z,1867.50
2022-09-07T11:37:04.439Z,2621.25
2022-09-07T11:38:06.566Z,2576.25
2022-09-07T11:39:08.690Z,2486.25
2022-09-07T11:40:10.925Z,2441.25
2022-09-07T11:41:12.041Z,2266.87
2022-09-07T11:42:44.357Z,2205.00
2022-09-07T11:43:16.418Z,2160.00
2022-09-07T11:44:17.385Z,2131.87
2022-09-07T11:45:19.771Z,1996.87
2022-09-07T11:46:20.902Z,1878.75
2022-09-07T11:47:23.063Z,1856.25
2022-09-07T11:48:30.305Z,1951.87
2022-09-07T11:49:26.391Z,2036.25
2022-09-07T11:50:28.481Z,2008.12
2022-09-07T11:51:30.606Z,1878.75
2022-09-07T11:52:32.658Z,1895.62
2022-09-07T11:53:34.733Z,1935.00
2022-09-07T11:54:36.849Z,1923.75
2022-09-07T11:55:38.942Z,1895.62
2022-09-07T11:56:45.593Z,1861.87
2022-09-07T11:57:42.230Z,1918.12
2022-09-07T11:58:44.334Z,2025.00
2022-09-07T11:59:46.462Z,2171.25
2022-09-07T12:00:48.593Z,2143.12
2022-09-07T12:01:49.567Z,2148.75
2022-09-07T12:03:00.511Z,2025.00
2022-09-07T12:03:54.032Z,2070.00
2022-09-07T12:04:56.578Z,2064.37
2022-09-07T12:05:56.517Z,1996.87
2022-09-07T12:06:58.611Z,2070.00
2022-09-07T12:08:00.644Z,2086.87
2022-09-07T12:09:02.681Z,1991.25
2022-09-07T12:10:04.808Z,1884.37
2022-09-07T12:11:06.915Z,1800.00
2022-09-07T12:12:08.979Z,1895.62
2022-09-07T12:13:11.043Z,2075.62
2022-09-07T12:14:13.174Z,2148.75
2022-09-07T12:15:15.285Z,2143.12
2022-09-07T12:16:17.459Z,2075.62
2022-09-07T12:17:19.604Z,2058.75
2022-09-07T12:18:21.708Z,2103.75
2022-09-07T12:19:23.819Z,2047.50
2022-09-07T12:20:25.858Z,2008.12
2022-09-07T12:21:27.027Z,1935.00
2022-09-07T12:22:29.251Z,1732.50
2022-09-07T12:23:30.122Z,1698.75
2022-09-07T12:24:32.213Z,1676.25
2022-09-07T12:25:34.355Z,1901.25
2022-09-07T12:26:36.460Z,2008.12
2022-09-07T12:27:38.556Z,1383.75
2022-09-07T12:28:40.623Z,438.75
2022-09-07T12:29:45.796Z,354.37
2022-09-07T12:30:44.454Z,348.75
2022-09-07T12:31:57.742Z,399.37
2022-09-07T12:32:57.421Z,444.37
2022-09-07T12:33:51.055Z,433.12
2022-09-07T12:34:51.961Z,461.25
2022-09-07T12:35:53.519Z,483.75
2022-09-07T12:36:54.479Z,489.37
2022-09-07T12:37:56.513Z,472.50
2022-09-07T12:38:58.668Z,455.62
2022-09-07T12:39:59.859Z,450.00
2022-09-07T12:41:00.814Z,433.12
2022-09-07T12:43:09.657Z,416.25
2022-09-07T12:44:06.271Z,405.00
2022-09-07T12:45:07.177Z,376.87
2022-09-07T12:46:09.287Z,376.87
2022-09-07T12:47:11.421Z,393.75
2022-09-07T12:48:13.456Z,360.00
2022-09-07T12:49:14.662Z,360.00
2022-09-07T12:50:16.736Z,393.75
2022-09-07T12:51:59.630Z,410.62
2022-09-07T12:52:21.004Z,416.25
2022-09-07T12:53:21.912Z,438.75
2022-09-07T12:54:24.050Z,421.87
2022-09-07T12:55:29.171Z,405.00
2022-09-07T12:56:28.215Z,399.37
2022-09-07T12:57:30.418Z,371.25
2022-09-07T12:58:32.652Z,360.00
2022-09-07T12:59:34.897Z,354.37
2022-09-07T13:00:36.931Z,337.50
2022-09-07T13:01:39.101Z,326.25
2022-09-07T13:02:41.785Z,303.75
2022-09-07T13:03:51.368Z,286.87
2022-09-07T13:04:45.230Z,315.00
2022-09-07T13:05:46.416Z,326.25
2022-09-07T13:07:03.138Z,337.50
2022-09-07T13:07:49.658Z,382.50
2022-09-07T13:08:50.624Z,393.75
2022-09-07T13:09:51.735Z,388.12
2022-09-07T13:10:52.796Z,388.12
2022-09-07T13:11:54.172Z,382.50
2022-09-07T13:12:58.023Z,365.62
2022-09-07T13:14:05.301Z,388.12
2022-09-07T13:14:59.045Z,393.75
2022-09-07T13:16:01.287Z,410.62
2022-09-07T13:17:18.789Z,421.87
2022-09-07T13:18:05.625Z,410.62
2022-09-07T13:19:06.503Z,376.87
2022-09-07T13:20:08.571Z,348.75
2022-09-07T13:21:10.656Z,337.50
2022-09-07T13:22:11.797Z,331.87
2022-09-07T13:23:13.874Z,326.25
2022-09-07T13:24:46.340Z,303.75
2022-09-07T13:25:18.857Z,292.50
2022-09-07T13:26:18.985Z,281.25
2022-09-07T13:27:20.790Z,253.12
2022-09-07T13:28:21.843Z,230.62
2022-09-07T13:29:24.136Z,219.37
2022-09-07T13:30:25.154Z,236.25
2022-09-07T13:31:27.221Z,275.62
2022-09-07T13:33:30.727Z,343.12
2022-09-07T13:34:31.694Z,360.00
2022-09-07T13:35:33.778Z,382.50
2022-09-07T13:36:35.843Z,382.50
2022-09-07T13:37:37.958Z,388.12
2022-09-07T13:38:40.043Z,410.62
2022-09-07T13:39:42.299Z,427.50
2022-09-07T13:40:44.422Z,421.87
2022-09-07T13:41:46.543Z,393.75
2022-09-07T13:42:48.924Z,360.00
2022-09-07T13:43:49.827Z,337.50
2022-09-07T13:44:51.943Z,337.50
2022-09-07T13:45:54.085Z,331.87
2022-09-07T13:46:56.263Z,348.75
2022-09-07T13:47:58.568Z,376.87
2022-09-07T13:49:00.659Z,371.25
2022-09-07T13:50:02.728Z,371.25
2022-09-07T13:51:04.808Z,376.87
2022-09-07T13:52:06.883Z,371.25
2022-09-07T13:53:08.982Z,365.62
2022-09-07T13:54:10.107Z,354.37
2022-09-07T13:55:11.235Z,343.12
2022-09-07T13:56:12.613Z,331.87
2022-09-07T13:57:13.713Z,320.62
2022-09-07T13:58:15.796Z,303.75
2022-09-07T13:59:17.868Z,281.25
2022-09-07T14:00:20.153Z,258.75
2022-09-07T14:01:21.361Z,230.62
2022-09-07T14:02:22.620Z,225.00
2022-09-07T14:03:24.716Z,247.50
2022-09-07T14:04:26.787Z,270.00
2022-09-07T14:05:28.823Z,270.00
2022-09-07T14:06:30.941Z,258.75
2022-09-07T14:07:33.081Z,247.50
2022-09-07T14:08:39.678Z,247.50
2022-09-07T14:09:37.463Z,253.12
2022-09-07T14:10:38.381Z,253.12
2022-09-07T14:11:40.524Z,258.75
2022-09-07T14:12:42.593Z,253.12
2022-09-07T14:13:44.888Z,264.37
2022-09-07T14:14:45.771Z,275.62
2022-09-07T14:15:48.079Z,292.50
2022-09-07T14:16:49.077Z,298.12
2022-09-07T14:17:57.263Z,303.75
2022-09-07T14:18:52.348Z,298.12
2022-09-07T14:19:54.418Z,281.25
2022-09-07T14:20:56.502Z,264.37
2022-09-07T14:21:58.579Z,253.12
2022-09-07T14:23:00.621Z,241.87
2022-09-07T14:24:02.855Z,230.62
2022-09-07T14:25:03.754Z,219.37
2022-09-07T14:26:21.267Z,208.12
2022-09-07T14:27:08.085Z,219.37
2022-09-07T14:28:08.981Z,258.75
2022-09-07T14:29:10.130Z,292.50
2022-09-07T14:30:12.252Z,309.37
2022-09-07T14:31:14.400Z,331.87
2022-09-07T14:32:15.358Z,365.62
2022-09-07T14:33:18.007Z,382.50
2022-09-07T14:34:18.979Z,382.50
2022-09-07T14:35:21.044Z,360.00
2022-09-07T14:36:42.490Z,337.50
2022-09-07T14:37:25.320Z,309.37
2022-09-07T14:39:27.548Z,247.50
2022-09-07T14:40:30.045Z,225.00
2022-09-07T14:41:30.991Z,213.75
2022-09-07T14:42:33.066Z,208.12
2022-09-07T14:43:35.198Z,202.50
2022-09-07T14:44:38.762Z,191.25
2022-09-07T14:45:38.830Z,185.62
2022-09-07T14:46:39.781Z,180.00
2022-09-07T14:47:41.883Z,180.00
2022-09-07T14:48:45.427Z,174.37
2022-09-07T14:49:45.700Z,174.37
2022-09-07T14:50:57.093Z,168.75
2022-09-07T14:51:49.960Z,168.75
2022-09-07T14:53:52.152Z,168.75
2022-09-07T14:54:54.221Z,168.75
2022-09-07T14:55:56.309Z,168.75
2022-09-07T14:56:57.691Z,163.12
2022-09-07T14:57:58.820Z,157.50
2022-09-07T14:59:00.990Z,151.87
2022-09-07T15:00:03.066Z,146.25
2022-09-07T15:02:05.459Z,146.25
2022-09-07T15:03:07.619Z,157.50
2022-09-07T15:04:08.639Z,151.87
2022-09-07T15:05:10.725Z,151.87
2022-09-07T15:07:00.925Z,151.87
2022-09-07T15:07:21.123Z,157.50
2022-09-07T15:08:15.093Z,157.50
2022-09-07T15:09:17.217Z,157.50
2022-09-07T15:10:19.345Z,157.50
2022-09-07T15:11:34.643Z,163.12
2022-09-07T15:12:33.012Z,174.37
2022-09-07T15:13:26.001Z,185.62
2022-09-07T15:14:26.906Z,196.87
2022-09-07T15:15:28.977Z,202.50
2022-09-07T15:16:31.219Z,191.25
2022-09-07T15:17:47.791Z,174.37
2022-09-07T15:18:34.452Z,168.75
2022-09-07T15:19:35.363Z,163.12
2022-09-07T15:20:37.475Z,163.12
2022-09-07T15:21:39.655Z,157.50
2022-09-07T15:22:39.468Z,157.50
2022-09-07T15:23:40.795Z,163.12
2022-09-07T15:24:42.865Z,157.50
2022-09-07T15:25:50.268Z,151.87
2022-09-07T15:27:47.539Z,135.00
2022-09-07T15:29:49.912Z,135.00
2022-09-07T15:31:40.459Z,129.37
2022-09-07T15:32:02.218Z,118.12
2022-09-07T15:32:54.499Z,112.50
2022-09-07T15:33:55.503Z,112.50
2022-09-07T15:34:57.589Z,106.87
2022-09-07T15:35:58.991Z,106.87
2022-09-07T15:37:00.846Z,101.25
2022-09-07T15:38:04.659Z,101.25
2022-09-07T15:39:03.965Z,95.62
2022-09-07T15:40:05.305Z,95.62
2022-09-07T15:41:23.635Z,101.25
2022-09-07T15:43:19.881Z,101.25
2022-09-07T15:44:13.747Z,106.87
2022-09-07T15:45:12.432Z,112.50
2022-09-07T15:46:14.492Z,112.50
2022-09-07T15:48:17.859Z,118.12
2022-09-07T15:49:19.933Z,118.12
2022-09-07T15:50:23.565Z,118.12
2022-09-07T15:52:31.482Z,118.12
2022-09-07T15:54:27.873Z,118.12
2022-09-07T15:55:29.937Z,112.50
2022-09-07T15:56:32.012Z,106.87
2022-09-07T15:57:51.337Z,106.87
2022-09-07T15:58:35.433Z,101.25
2022-09-07T15:59:36.332Z,101.25
2022-09-07T16:00:38.496Z,95.62
2022-09-07T16:01:55.806Z,95.62
2022-09-07T16:03:11.798Z,90.00
2022-09-07T16:03:42.880Z,84.37
2022-09-07T16:04:44.053Z,84.37
2022-09-07T16:05:45.119Z,84.37
2022-09-07T16:06:48.233Z,78.75
2022-09-07T16:08:51.777Z,84.37
2022-09-07T16:09:52.852Z,90.00
2022-09-07T16:10:54.422Z,90.00
2022-09-07T16:11:55.476Z,95.62
2022-09-07T16:13:10.727Z,95.62
2022-09-07T16:14:01.694Z,101.25
2022-09-07T16:14:59.559Z,101.25
2022-09-07T16:16:00.607Z,101.25
2022-09-07T16:18:02.785Z,95.62
2022-09-07T16:19:07.254Z,95.62
2022-09-07T16:20:05.279Z,95.62
2022-09-07T16:21:11.762Z,95.62
2022-09-07T16:22:08.994Z,95.62
2022-09-07T16:23:13.709Z,95.62
2022-09-07T16:24:11.949Z,95.62
2022-09-07T16:25:14.125Z,101.25
2022-09-07T16:26:16.216Z,101.25
2022-09-07T16:27:18.718Z,106.87
2022-09-07T16:28:19.687Z,118.12
2022-09-07T16:29:21.726Z,123.75
2022-09-07T16:30:23.792Z,129.37
2022-09-07T16:31:26.616Z,129.37
2022-09-07T16:32:57.686Z,129.37
2022-09-07T16:33:36.715Z,123.75
2022-09-07T16:34:32.272Z,123.75
2022-09-07T16:35:33.177Z,118.12
2022-09-07T16:36:35.455Z,118.12
2022-09-07T16:37:36.880Z,123.75
2022-09-07T16:38:45.634Z,123.75
2022-09-07T16:39:40.219Z,129.37
2022-09-07T16:40:41.562Z,140.62
2022-09-07T16:41:42.629Z,151.87
2022-09-07T16:42:45.461Z,163.12
2022-09-07T16:43:46.190Z,174.37
2022-09-07T16:44:47.823Z,180.00
2022-09-07T16:46:04.846Z,180.00
2022-09-07T16:46:51.173Z,180.00
2022-09-07T16:47:51.163Z,185.62
2022-09-07T16:48:53.286Z,185.62
2022-09-07T16:49:55.383Z,180.00
2022-09-07T16:51:01.684Z,174.37
2022-09-07T16:51:59.113Z,168.75
2022-09-07T16:52:58.896Z,163.12
2022-09-07T16:54:00.995Z,163.12
2022-09-07T16:55:03.145Z,157.50
2022-09-07T16:56:05.222Z,146.25
2022-09-07T16:57:06.380Z,140.62
2022-09-07T16:58:38.601Z,129.37
2022-09-07T16:59:10.907Z,118.12
2022-09-07T17:00:11.811Z,112.50
2022-09-07T17:01:13.948Z,101.25
2022-09-07T17:02:16.099Z,90.00
2022-09-07T17:03:18.360Z,78.75
2022-09-07T17:04:20.573Z,67.50
2022-09-07T17:05:21.535Z,61.87
2022-09-07T17:06:23.875Z,61.87
2022-09-07T17:07:24.771Z,56.25
2022-09-07T17:08:26.908Z,50.62
2022-09-07T17:09:27.845Z,45.00
2022-09-07T17:10:30.208Z,39.37
2022-09-07T17:11:32.318Z,39.37
2022-09-07T17:12:33.309Z,33.75
2022-09-07T17:13:35.158Z,33.75
2022-09-07T17:14:36.158Z,33.75
2022-09-07T17:15:38.317Z,28.12
2022-09-07T17:16:40.494Z,28.12
2022-09-07T17:17:41.456Z,28.12
2022-09-07T17:19:44.982Z,22.50
2022-09-07T17:20:46.128Z,22.50
2022-09-07T17:21:47.024Z,22.50
2022-09-07T17:22:49.100Z,16.87
2022-09-07T17:23:55.144Z,16.87
2022-09-07T17:24:53.347Z,16.87
2022-09-07T17:26:01.622Z,16.87
2022-09-07T17:26:59.427Z,16.87
2022-09-07T17:27:58.160Z,16.87
2022-09-07T17:29:00.985Z,11.25
2022-09-07T17:30:02.190Z,11.25
2022-09-07T17:31:04.345Z,11.25
2022-09-07T17:33:07.958Z,11.25
2022-09-07T17:34:08.933Z,11.25
2022-09-07T17:35:11.005Z,5.62
2022-09-07T17:36:13.111Z,5.62
2022-09-07T17:37:15.191Z,5.62
2022-09-07T17:39:19.495Z,5.62
2022-09-07T17:40:20.705Z,5.62
2022-09-07T17:41:22.863Z,5.62
